Jurong, China
Current Conditions -  °F | °C
As of 3:00 PM on Sunday 26 Oct 2014 (Local Time) from ZSNJ Reporting Station
Clear Clear  
Wind Chill: 82°   Ceiling: Unl
Heat Index: 82°   Visibility: 6mi
Dew Point: 54°   Wind: 4mph
Humidity: 37%   Direction: 50°NE
Pressure: 30.03"   Gusts: NA
Location:  31.93°N, 119.17°E
Report Text: ZSNJ 260700Z 05002MPS 010V080 CAVOK 28/12 Q1017 NOSIG
Loading
Personal Weather Stations






























Interactive Weather Map
Tropical Storm Tracking
New forecast layout! Learn more

10-Day Weather Forecast

Advertisements
Track Severe Weather on mobile